Time;durP1;ratioP1;P1;durP2;ratioP2;P2;SDS_P1;SDS_P2;PMS_P1;PMS_P2;Temp;Humidity;BMP_temperature;BMP_pressure;BME280_temperature;BME280_humidity;BME280_pressure;Samples;Min_cycle;Max_cycle;Signal;HPM_P1;HPM_P2
2021/07/15 00:01:25;;;;;;;;;;;15.80;99.90;;;;;;5034155;28;20001;-74
2021/07/15 00:03:50;;;;;;;;;;;15.70;99.90;;;;;;5034016;28;20106;-75
2021/07/15 00:06:16;;;;;;;;;;;16.00;99.90;;;;;;5049130;28;19992;-74
2021/07/15 00:08:44;;;;;;;;;;;16.10;99.20;;;;;;5033812;28;19975;-75
2021/07/15 00:11:11;;;;;;;;;;;16.20;98.50;;;;;;5033488;28;20403;-75
2021/07/15 00:13:36;;;;;;;;;;;16.10;98.40;;;;;;5032468;28;19916;-75
2021/07/15 00:16:03;;;;;;;;;;;16.00;98.40;;;;;;5033699;28;19909;-76
2021/07/15 00:18:31;;;;;;;;;;;16.10;98.30;;;;;;5033698;28;19936;-76
2021/07/15 00:20:58;;;;;;;;;;;16.10;98.50;;;;;;5033776;28;19909;-75
2021/07/15 00:23:23;;;;;;;;;;;16.10;98.60;;;;;;5033285;28;19913;-76
2021/07/15 00:25:49;;;;;;;;;;;16.10;98.50;;;;;;5033659;28;19913;-75
2021/07/15 00:28:15;;;;;;;;;;;16.20;98.40;;;;;;5032347;28;19916;-75
2021/07/15 00:30:41;;;;;;;;;;;16.30;98.10;;;;;;5033783;28;19913;-76
2021/07/15 00:33:08;;;;;;;;;;;16.30;97.90;;;;;;5033477;28;19963;-75
2021/07/15 00:35:34;;;;;;;;;;;16.20;97.80;;;;;;5033514;28;19913;-76
2021/07/15 00:38:00;;;;;;;;;;;16.00;98.10;;;;;;5033375;28;19909;-75
2021/07/15 00:40:26;;;;;;;;;;;15.90;98.50;;;;;;5033483;28;19909;-76
2021/07/15 00:42:51;;;;;;;;;;;15.90;98.80;;;;;;5033589;28;19909;-77
2021/07/15 00:45:18;;;;;;;;;;;15.60;99.80;;;;;;5033375;28;19932;-74
2021/07/15 00:47:44;;;;;;;;;;;15.60;99.90;;;;;;5033386;28;19910;-75
2021/07/15 00:50:10;;;;;;;;;;;15.70;99.70;;;;;;5033534;28;19909;-76
2021/07/15 00:52:38;;;;;;;;;;;15.60;99.90;;;;;;5033416;28;20259;-76
2021/07/15 00:55:04;;;;;;;;;;;15.60;99.90;;;;;;5048698;28;19916;-75
2021/07/15 00:57:30;;;;;;;;;;;15.50;99.90;;;;;;5033266;28;19991;-76
2021/07/15 00:59:55;;;;;;;;;;;15.50;99.90;;;;;;5033492;28;20004;-74
2021/07/15 01:02:21;;;;;;;;;;;15.40;99.90;;;;;;5033518;28;19959;-76
2021/07/15 01:04:47;;;;;;;;;;;15.40;99.90;;;;;;5033364;28;19909;-75
2021/07/15 01:07:12;;;;;;;;;;;15.40;99.90;;;;;;5033223;28;19924;-76
2021/07/15 01:09:38;;;;;;;;;;;15.30;99.90;;;;;;5033235;28;19948;-76
2021/07/15 01:12:30;;;;;;;;;;;15.30;99.90;;;;;;5032969;28;19921;-73
2021/07/15 01:14:56;;;;;;;;;;;15.30;99.90;;;;;;5030946;28;19933;-75
2021/07/15 01:17:23;;;;;;;;;;;15.30;99.90;;;;;;5031836;28;20329;-75
2021/07/15 01:19:57;;;;;;;;;;;15.40;99.90;;;;;;5033097;28;19951;-75
2021/07/15 01:22:31;;;;;;;;;;;15.60;99.90;;;;;;5033270;28;19909;-76
2021/07/15 01:25:15;;;;;;;;;;;15.70;99.60;;;;;;5032981;28;19909;-76
2021/07/15 01:28:16;;;;;;;;;;;15.80;99.10;;;;;;5033109;28;19909;-76
2021/07/15 01:30:44;;;;;;;;;;;15.80;98.80;;;;;;4991677;28;19917;-75
2021/07/15 01:33:17;;;;;;;;;;;15.70;98.90;;;;;;5024667;28;19917;-76
2021/07/15 01:35:43;;;;;;;;;;;15.70;98.50;;;;;;5035035;28;19913;-74
2021/07/15 01:38:09;;;;;;;;;;;15.50;98.70;;;;;;5036443;28;19913;-76
2021/07/15 01:40:38;;;;;;;;;;;15.50;98.90;;;;;;5036474;28;20361;-76
2021/07/15 01:43:05;;;;;;;;;;;15.40;98.90;;;;;;5036409;28;19909;-76
2021/07/15 01:45:32;;;;;;;;;;;15.60;98.90;;;;;;5036097;28;19959;-75
2021/07/15 01:47:58;;;;;;;;;;;15.70;98.60;;;;;;5036431;28;19996;-76
2021/07/15 01:50:23;;;;;;;;;;;15.60;99.10;;;;;;5036301;28;19952;-75
2021/07/15 01:52:51;;;;;;;;;;;15.80;99.20;;;;;;5036187;28;19924;-76
2021/07/15 01:55:17;;;;;;;;;;;15.90;99.60;;;;;;5034949;28;19959;-76
2021/07/15 01:57:44;;;;;;;;;;;16.00;99.70;;;;;;5036151;28;19910;-76
2021/07/15 02:00:09;;;;;;;;;;;16.10;99.70;;;;;;5036289;28;19913;-75
2021/07/15 02:02:36;;;;;;;;;;;16.10;99.90;;;;;;5036060;28;20396;-74
2021/07/15 02:05:04;;;;;;;;;;;16.10;99.90;;;;;;5036495;28;19913;-75
2021/07/15 02:07:30;;;;;;;;;;;16.00;99.90;;;;;;5035844;28;19910;-76
2021/07/15 02:09:56;;;;;;;;;;;16.00;99.90;;;;;;5035977;28;20384;-75
2021/07/15 02:12:22;;;;;;;;;;;16.20;99.90;;;;;;5035900;28;19909;-75
2021/07/15 02:14:50;;;;;;;;;;;16.30;99.90;;;;;;5035808;28;20373;-76
2021/07/15 02:17:16;;;;;;;;;;;16.40;99.90;;;;;;5051103;28;20428;-76
2021/07/15 02:19:43;;;;;;;;;;;16.50;99.90;;;;;;5035866;28;19910;-75
2021/07/15 02:22:08;;;;;;;;;;;16.50;99.90;;;;;;5035782;28;19909;-74
2021/07/15 02:24:35;;;;;;;;;;;16.50;99.90;;;;;;5035648;28;19909;-76
2021/07/15 02:27:04;;;;;;;;;;;16.50;99.90;;;;;;5035665;28;19978;-75
2021/07/15 02:29:30;;;;;;;;;;;16.50;99.90;;;;;;5035830;28;19948;-75
2021/07/15 02:32:09;;;;;;;;;;;16.60;99.90;;;;;;5035596;28;19920;-77
2021/07/15 02:34:34;;;;;;;;;;;16.50;99.90;;;;;;5035431;28;19955;-74
2021/07/15 02:37:00;;;;;;;;;;;16.60;99.90;;;;;;5035407;28;19909;-76
2021/07/15 02:39:26;;;;;;;;;;;16.60;99.90;;;;;;5035550;28;20362;-75
2021/07/15 02:41:52;;;;;;;;;;;16.50;99.90;;;;;;5035297;28;19916;-76
2021/07/15 02:44:17;;;;;;;;;;;16.40;99.90;;;;;;5035262;28;19992;-75
2021/07/15 02:46:43;;;;;;;;;;;16.50;99.90;;;;;;5035181;28;19913;-75
2021/07/15 02:49:08;;;;;;;;;;;16.60;99.90;;;;;;5035183;28;20007;-74
2021/07/15 02:51:34;;;;;;;;;;;16.50;99.90;;;;;;5050378;28;20003;-76
2021/07/15 02:54:01;;;;;;;;;;;16.60;99.90;;;;;;5035345;28;19909;-76
2021/07/15 02:56:40;;;;;;;;;;;16.60;99.90;;;;;;5035002;28;19916;-75
2021/07/15 02:59:09;;;;;;;;;;;16.50;99.90;;;;;;5034976;28;19955;-77
2021/07/15 03:01:41;;;;;;;;;;;16.60;99.90;;;;;;5034937;28;19915;-76
2021/07/15 03:04:06;;;;;;;;;;;16.60;99.90;;;;;;5035012;28;19909;-75
2021/07/15 03:06:32;;;;;;;;;;;16.50;99.90;;;;;;5034830;28;19915;-74
2021/07/15 03:09:03;;;;;;;;;;;16.50;99.90;;;;;;5034736;28;19909;-76
2021/07/15 03:11:33;;;;;;;;;;;16.40;99.90;;;;;;5034499;28;20089;-76
2021/07/15 03:14:00;;;;;;;;;;;16.50;99.90;;;;;;5035162;28;19948;-74
2021/07/15 03:16:27;;;;;;;;;;;16.40;99.90;;;;;;5034650;28;20377;-75
2021/07/15 03:18:53;;;;;;;;;;;16.50;99.90;;;;;;5034561;28;19909;-75
2021/07/15 03:21:21;;;;;;;;;;;16.40;99.90;;;;;;5034670;28;19982;-76
2021/07/15 03:23:47;;;;;;;;;;;16.40;99.90;;;;;;5034474;28;19909;-76
2021/07/15 03:26:13;;;;;;;;;;;16.40;99.90;;;;;;5034611;28;19916;-76
2021/07/15 03:28:40;;;;;;;;;;;16.50;99.90;;;;;;5034369;28;19913;-76
2021/07/15 03:31:07;;;;;;;;;;;16.50;99.90;;;;;;5034310;28;19964;-77
2021/07/15 03:33:34;;;;;;;;;;;16.40;99.90;;;;;;5034538;28;19909;-75
2021/07/15 03:36:01;;;;;;;;;;;16.30;99.90;;;;;;5034463;28;19921;-75
2021/07/15 03:38:27;;;;;;;;;;;16.30;99.90;;;;;;5034417;28;19916;-76
2021/07/15 03:40:52;;;;;;;;;;;16.30;99.90;;;;;;5034299;28;19909;-74
2021/07/15 03:43:19;;;;;;;;;;;16.30;99.90;;;;;;5034177;28;19953;-75
2021/07/15 03:45:49;;;;;;;;;;;16.30;99.90;;;;;;5034516;28;19909;-76
2021/07/15 03:48:15;;;;;;;;;;;16.30;99.90;;;;;;5034205;28;19909;-76
2021/07/15 03:50:41;;;;;;;;;;;16.20;99.90;;;;;;5034087;28;19958;-75
2021/07/15 03:53:08;;;;;;;;;;;16.30;99.90;;;;;;5034234;28;19920;-75
2021/07/15 03:55:35;;;;;;;;;;;16.30;99.90;;;;;;5033976;28;19955;-75
2021/07/15 03:58:02;;;;;;;;;;;16.30;99.90;;;;;;5033617;28;19995;-77
2021/07/15 04:00:28;;;;;;;;;;;16.20;99.90;;;;;;5033962;28;20376;-75
2021/07/15 04:02:58;;;;;;;;;;;16.20;99.90;;;;;;5033835;28;19909;-76
2021/07/15 04:05:25;;;;;;;;;;;16.10;99.90;;;;;;5034050;28;19910;-76
2021/07/15 04:07:53;;;;;;;;;;;16.10;99.90;;;;;;5033781;28;19909;-75
2021/07/15 04:10:18;;;;;;;;;;;16.00;99.90;;;;;;5033560;28;19917;-76
2021/07/15 04:12:46;;;;;;;;;;;15.90;99.90;;;;;;5033801;28;19925;-76
2021/07/15 04:15:13;;;;;;;;;;;15.80;99.90;;;;;;5033703;28;19959;-76
2021/07/15 04:17:45;;;;;;;;;;;15.80;99.90;;;;;;5033658;28;19913;-75
2021/07/15 04:20:11;;;;;;;;;;;15.80;99.90;;;;;;5033832;28;19959;-75
2021/07/15 04:22:38;;;;;;;;;;;15.70;99.90;;;;;;5033556;28;19980;-76
2021/07/15 04:25:04;;;;;;;;;;;15.80;99.90;;;;;;5033652;28;19949;-77
2021/07/15 04:27:31;;;;;;;;;;;15.80;99.90;;;;;;5032913;28;20008;-77
2021/07/15 04:29:59;;;;;;;;;;;15.80;99.90;;;;;;5033561;28;19909;-75
2021/07/15 04:32:26;;;;;;;;;;;15.90;99.90;;;;;;5033650;28;19919;-76
2021/07/15 04:34:53;;;;;;;;;;;16.00;99.90;;;;;;5033534;28;19935;-75
2021/07/15 04:37:20;;;;;;;;;;;16.00;99.90;;;;;;5033463;28;19913;-76
2021/07/15 04:39:46;;;;;;;;;;;16.10;99.90;;;;;;5033911;28;19916;-76
2021/07/15 04:42:13;;;;;;;;;;;16.00;99.90;;;;;;5033707;28;19909;-76
2021/07/15 04:44:39;;;;;;;;;;;16.00;99.90;;;;;;5033456;28;20363;-76
2021/07/15 04:47:06;;;;;;;;;;;16.00;99.90;;;;;;5033394;28;19992;-75
2021/07/15 04:49:32;;;;;;;;;;;16.10;99.90;;;;;;5033371;28;20425;-76
2021/07/15 04:51:58;;;;;;;;;;;16.20;99.90;;;;;;5033248;28;20404;-76
2021/07/15 04:54:24;;;;;;;;;;;16.20;99.90;;;;;;5033323;28;19913;-74
2021/07/15 04:56:50;;;;;;;;;;;16.30;99.90;;;;;;5033360;28;19916;-77
2021/07/15 04:59:16;;;;;;;;;;;16.40;99.90;;;;;;5033316;28;19910;-75
2021/07/15 05:01:41;;;;;;;;;;;16.40;99.90;;;;;;5033280;28;19917;-75
2021/07/15 05:04:07;;;;;;;;;;;16.50;99.90;;;;;;5033396;28;19992;-76
2021/07/15 05:06:33;;;;;;;;;;;16.40;99.90;;;;;;5033285;28;20369;-75
2021/07/15 05:08:58;;;;;;;;;;;16.40;99.90;;;;;;5031899;28;19913;-77
2021/07/15 05:11:24;;;;;;;;;;;16.50;99.90;;;;;;5051172;28;19921;-76
2021/07/15 05:13:50;;;;;;;;;;;16.70;99.90;;;;;;5036980;28;20000;-75
2021/07/15 05:16:16;;;;;;;;;;;16.70;99.90;;;;;;5036938;28;19909;-77
2021/07/15 05:18:42;;;;;;;;;;;16.70;99.90;;;;;;5036904;28;19996;-75
2021/07/15 05:21:08;;;;;;;;;;;16.80;99.90;;;;;;5035553;28;20389;-75
2021/07/15 05:23:34;;;;;;;;;;;16.90;99.90;;;;;;5036814;28;19932;-75
2021/07/15 05:25:59;;;;;;;;;;;16.90;99.90;;;;;;5036768;28;20360;-75
2021/07/15 05:28:25;;;;;;;;;;;17.00;99.90;;;;;;5036758;28;19909;-75
2021/07/15 05:30:51;;;;;;;;;;;17.10;99.90;;;;;;5036647;28;19915;-77
2021/07/15 05:33:17;;;;;;;;;;;17.10;99.90;;;;;;5035276;28;19913;-75
2021/07/15 05:35:43;;;;;;;;;;;17.10;99.90;;;;;;5051896;28;19995;-75
2021/07/15 05:38:09;;;;;;;;;;;17.10;99.90;;;;;;5036519;28;19959;-75
2021/07/15 05:40:34;;;;;;;;;;;17.20;99.90;;;;;;5036490;28;19913;-75
2021/07/15 05:43:00;;;;;;;;;;;17.20;99.90;;;;;;5036509;28;19999;-75
2021/07/15 05:45:26;;;;;;;;;;;17.30;99.90;;;;;;5036399;28;19936;-75
2021/07/15 05:47:52;;;;;;;;;;;17.40;99.90;;;;;;5036514;28;19949;-75
2021/07/15 05:50:17;;;;;;;;;;;17.50;99.90;;;;;;5036469;28;19916;-75
2021/07/15 05:52:43;;;;;;;;;;;17.50;99.90;;;;;;5036291;28;19913;-75
2021/07/15 05:55:09;;;;;;;;;;;17.60;99.90;;;;;;5036464;28;20301;-76
2021/07/15 05:57:35;;;;;;;;;;;17.60;99.90;;;;;;5036108;28;19909;-76
2021/07/15 06:00:00;;;;;;;;;;;17.60;99.90;;;;;;5036117;28;19916;-75
2021/07/15 06:02:26;;;;;;;;;;;17.60;99.90;;;;;;5036068;28;19916;-76
2021/07/15 06:04:52;;;;;;;;;;;17.70;99.90;;;;;;5035894;28;19910;-77
2021/07/15 06:07:17;;;;;;;;;;;17.70;99.90;;;;;;5035951;28;19909;-75
2021/07/15 06:09:43;;;;;;;;;;;17.70;99.90;;;;;;5036148;28;19909;-76
2021/07/15 06:12:08;;;;;;;;;;;17.80;99.90;;;;;;5051140;28;20020;-75
2021/07/15 06:14:34;;;;;;;;;;;17.90;99.90;;;;;;5035980;28;19910;-75
2021/07/15 06:17:00;;;;;;;;;;;18.00;99.90;;;;;;5034544;28;20301;-76
2021/07/15 06:19:26;;;;;;;;;;;18.20;99.90;;;;;;5036213;28;20427;-76
2021/07/15 06:21:51;;;;;;;;;;;18.40;99.90;;;;;;5035390;28;20435;-75
2021/07/15 06:24:17;;;;;;;;;;;18.50;99.90;;;;;;5035779;28;19909;-75
2021/07/15 06:26:44;;;;;;;;;;;18.40;99.90;;;;;;5035629;28;19992;-76
2021/07/15 06:29:10;;;;;;;;;;;18.40;99.90;;;;;;5035371;28;19913;-75
2021/07/15 06:31:37;;;;;;;;;;;18.60;99.90;;;;;;5035506;28;20335;-76
2021/07/15 06:34:03;;;;;;;;;;;18.60;99.70;;;;;;5035520;28;20316;-78
2021/07/15 06:36:30;;;;;;;;;;;18.40;99.90;;;;;;5036023;28;19913;-77
2021/07/15 06:38:55;;;;;;;;;;;18.30;99.90;;;;;;5050727;28;19909;-76
2021/07/15 06:41:21;;;;;;;;;;;18.40;99.90;;;;;;5034102;28;19932;-75
2021/07/15 06:43:47;;;;;;;;;;;18.50;99.90;;;;;;5050585;28;19909;-76
2021/07/15 06:46:12;;;;;;;;;;;18.70;99.50;;;;;;5035297;28;19956;-77
2021/07/15 06:48:38;;;;;;;;;;;18.70;99.20;;;;;;5035230;28;20428;-75
2021/07/15 06:51:04;;;;;;;;;;;18.80;99.00;;;;;;5035157;28;19909;-76
2021/07/15 06:53:29;;;;;;;;;;;19.00;98.60;;;;;;5033703;28;19921;-75
2021/07/15 06:55:55;;;;;;;;;;;19.10;98.40;;;;;;5035093;28;20415;-77
2021/07/15 06:58:21;;;;;;;;;;;19.30;98.20;;;;;;5034822;28;19959;-76
2021/07/15 07:00:47;;;;;;;;;;;19.40;97.80;;;;;;5034845;28;19916;-75
2021/07/15 07:03:13;;;;;;;;;;;19.50;97.70;;;;;;5034756;28;19963;-76
2021/07/15 07:05:39;;;;;;;;;;;19.60;97.50;;;;;;5034730;28;19996;-76
2021/07/15 07:08:05;;;;;;;;;;;19.70;97.20;;;;;;5034671;28;19999;-75
2021/07/15 07:10:31;;;;;;;;;;;19.60;96.90;;;;;;5034440;28;20397;-75
2021/07/15 07:12:57;;;;;;;;;;;19.80;96.80;;;;;;5033170;28;19920;-76
2021/07/15 07:15:22;;;;;;;;;;;20.00;96.20;;;;;;5034897;28;19916;-77
2021/07/15 07:17:48;;;;;;;;;;;19.80;96.50;;;;;;5034482;28;19916;-75
2021/07/15 07:20:14;;;;;;;;;;;20.00;96.20;;;;;;5034743;28;19916;-78
2021/07/15 07:22:41;;;;;;;;;;;20.10;96.00;;;;;;5034405;28;19913;-75
2021/07/15 07:25:08;;;;;;;;;;;20.30;95.50;;;;;;5034505;28;20381;-76
2021/07/15 07:27:34;;;;;;;;;;;20.40;95.40;;;;;;5034394;28;19909;-76
2021/07/15 07:30:00;;;;;;;;;;;20.70;94.60;;;;;;5034594;28;20407;-78
2021/07/15 07:32:26;;;;;;;;;;;20.80;94.50;;;;;;5033758;28;19917;-77
2021/07/15 07:34:51;;;;;;;;;;;21.00;94.20;;;;;;5034173;28;20003;-76
2021/07/15 07:37:17;;;;;;;;;;;21.40;93.80;;;;;;5034520;28;19909;-75
2021/07/15 07:39:43;;;;;;;;;;;21.60;93.20;;;;;;5034520;28;19909;-76
2021/07/15 07:42:08;;;;;;;;;;;21.60;93.40;;;;;;5034318;28;19909;-76
2021/07/15 07:44:34;;;;;;;;;;;21.60;92.80;;;;;;5034221;28;19910;-77
2021/07/15 07:46:59;;;;;;;;;;;21.50;92.80;;;;;;5034115;28;19913;-75
2021/07/15 07:49:25;;;;;;;;;;;22.00;92.60;;;;;;5034107;28;19932;-78
2021/07/15 07:51:51;;;;;;;;;;;21.90;92.50;;;;;;5034139;28;19913;-78
2021/07/15 07:54:16;;;;;;;;;;;21.70;92.80;;;;;;5034103;28;19944;-76
2021/07/15 07:56:42;;;;;;;;;;;22.20;92.00;;;;;;5034072;28;19915;-76
2021/07/15 07:59:08;;;;;;;;;;;22.80;90.70;;;;;;5033690;28;19910;-78
2021/07/15 08:01:34;;;;;;;;;;;23.10;89.30;;;;;;5033965;28;19909;-78
2021/07/15 08:04:00;;;;;;;;;;;23.40;88.00;;;;;;5033856;28;19917;-77
2021/07/15 08:06:26;;;;;;;;;;;23.90;85.60;;;;;;5034023;28;19959;-75
2021/07/15 08:08:52;;;;;;;;;;;24.60;84.10;;;;;;5034021;28;20328;-75
2021/07/15 08:11:20;;;;;;;;;;;24.40;83.30;;;;;;5033688;28;19971;-77
2021/07/15 08:13:45;;;;;;;;;;;22.60;88.80;;;;;;5033737;28;19948;-77
2021/07/15 08:16:11;;;;;;;;;;;22.60;90.00;;;;;;5034161;28;19944;-76
2021/07/15 08:18:36;;;;;;;;;;;23.50;88.70;;;;;;5032403;28;19936;-76
2021/07/15 08:21:02;;;;;;;;;;;24.30;86.30;;;;;;5032396;28;20358;-77
2021/07/15 08:23:27;;;;;;;;;;;24.20;83.80;;;;;;5033685;28;19909;-76
2021/07/15 08:25:53;;;;;;;;;;;23.70;86.00;;;;;;5033663;28;20254;-76
2021/07/15 08:28:19;;;;;;;;;;;23.00;87.90;;;;;;5033935;28;19975;-75
2021/07/15 08:30:44;;;;;;;;;;;23.60;86.60;;;;;;5033663;28;19915;-77
2021/07/15 08:33:10;;;;;;;;;;;23.10;87.70;;;;;;5032140;28;19913;-76
2021/07/15 08:35:36;;;;;;;;;;;24.00;85.90;;;;;;5033586;28;19909;-76
2021/07/15 08:38:02;;;;;;;;;;;25.30;81.80;;;;;;5033547;28;20435;-77
2021/07/15 08:40:28;;;;;;;;;;;26.30;77.20;;;;;;5033699;28;19909;-76
2021/07/15 08:42:54;;;;;;;;;;;27.00;73.60;;;;;;5033662;28;19909;-76
2021/07/15 08:45:20;;;;;;;;;;;27.20;71.50;;;;;;5036079;28;19972;-76
2021/07/15 08:47:45;;;;;;;;;;;26.70;71.50;;;;;;5037406;28;19936;-78
2021/07/15 08:50:15;;;;;;;;;;;26.50;72.70;;;;;;5037434;28;19931;-77
2021/07/15 08:52:41;;;;;;;;;;;27.10;71.40;;;;;;5037266;28;19956;-78
2021/07/15 08:57:34;;;;;;;;;;;28.00;67.00;;;;;;5037653;28;19916;-77
2021/07/15 09:00:00;;;;;;;;;;;27.80;68.50;;;;;;5037265;28;19913;-76
2021/07/15 09:02:26;;;;;;;;;;;27.90;69.30;;;;;;5037167;28;19936;-76
2021/07/15 09:04:52;;;;;;;;;;;28.30;66.70;;;;;;5037494;28;19909;-77
2021/07/15 09:07:19;;;;;;;;;;;28.70;63.40;;;;;;5037206;28;20392;-77
2021/07/15 09:09:45;;;;;;;;;;;29.50;62.40;;;;;;5037038;28;19916;-78
2021/07/15 09:12:12;;;;;;;;;;;29.60;61.90;;;;;;5036970;28;19940;-76
2021/07/15 09:14:45;;;;;;;;;;;29.60;58.80;;;;;;5037288;28;19909;-77
2021/07/15 09:17:11;;;;;;;;;;;29.50;59.10;;;;;;5036829;28;19909;-79
2021/07/15 09:19:38;;;;;;;;;;;29.60;60.40;;;;;;5036786;28;19915;-78
2021/07/15 09:22:11;;;;;;;;;;;29.20;59.00;;;;;;5035485;28;20265;-75
2021/07/15 09:24:38;;;;;;;;;;;29.70;58.80;;;;;;5036970;28;19936;-79
2021/07/15 09:27:17;;;;;;;;;;;30.00;58.80;;;;;;5036669;28;20008;-77
2021/07/15 09:29:44;;;;;;;;;;;30.10;56.60;;;;;;5036831;28;19975;-78
2021/07/15 09:32:14;;;;;;;;;;;30.00;56.30;;;;;;5036565;28;19917;-77
2021/07/15 09:34:40;;;;;;;;;;;29.50;58.30;;;;;;5036524;28;19913;-75
2021/07/15 09:37:12;;;;;;;;;;;30.10;56.70;;;;;;5036734;28;19909;-76
2021/07/15 09:39:44;;;;;;;;;;;29.20;56.50;;;;;;5036548;28;19909;-76
2021/07/15 09:42:18;;;;;;;;;;;28.00;59.90;;;;;;5036360;28;19917;-75
2021/07/15 09:44:46;;;;;;;;;;;26.50;64.00;;;;;;5036615;28;19996;-77
2021/07/15 09:47:34;;;;;;;;;;;27.10;65.20;;;;;;5036256;28;19909;-77
2021/07/15 09:50:00;;;;;;;;;;;27.80;61.60;;;;;;5036253;28;20359;-77
2021/07/15 09:52:25;;;;;;;;;;;29.20;59.20;;;;;;5036135;28;19964;-76
2021/07/15 09:54:51;;;;;;;;;;;30.40;55.30;;;;;;5036269;28;19909;-76
2021/07/15 09:57:29;;;;;;;;;;;31.30;54.90;;;;;;5035538;28;20376;-77
2021/07/15 09:59:58;;;;;;;;;;;30.40;54.10;;;;;;5035982;28;19913;-77
2021/07/15 10:02:30;;;;;;;;;;;29.10;57.70;;;;;;5035928;28;19909;-77
2021/07/15 10:04:56;;;;;;;;;;;30.30;56.40;;;;;;5036106;28;19913;-76
2021/07/15 10:07:25;;;;;;;;;;;30.00;54.60;;;;;;5035839;28;20000;-75
2021/07/15 10:10:10;;;;;;;;;;;30.00;55.80;;;;;;5035592;28;20437;-78
2021/07/15 10:12:36;;;;;;;;;;;30.80;53.90;;;;;;5035626;28;20431;-76
2021/07/15 10:15:08;;;;;;;;;;;31.30;52.20;;;;;;5036273;28;19909;-77
2021/07/15 10:17:44;;;;;;;;;;;32.00;50.60;;;;;;5035804;28;19909;-77
2021/07/15 10:20:10;;;;;;;;;;;32.80;49.60;;;;;;5051086;28;19919;-77
2021/07/15 10:22:35;;;;;;;;;;;32.20;49.60;;;;;;5035727;28;19959;-76
2021/07/15 10:25:01;;;;;;;;;;;31.80;49.60;;;;;;5035582;28;19916;-78
2021/07/15 10:27:27;;;;;;;;;;;32.80;49.00;;;;;;5035627;28;19909;-77
2021/07/15 10:29:52;;;;;;;;;;;32.70;47.00;;;;;;5035648;28;20312;-78
2021/07/15 10:32:21;;;;;;;;;;;32.40;48.70;;;;;;5035486;28;19913;-79
2021/07/15 10:34:52;;;;;;;;;;;33.30;46.30;;;;;;5050782;28;20374;-77
2021/07/15 10:37:17;;;;;;;;;;;32.50;47.30;;;;;;5035446;28;20020;-77
2021/07/15 10:39:44;;;;;;;;;;;31.90;49.30;;;;;;5035332;28;20059;-78
2021/07/15 10:42:10;;;;;;;;;;;31.60;49.90;;;;;;5050558;28;20435;-76
2021/07/15 10:44:36;;;;;;;;;;;32.10;49.20;;;;;;5035315;28;19909;-78
2021/07/15 10:47:02;;;;;;;;;;;33.30;47.50;;;;;;5035174;28;20343;-78
2021/07/15 10:49:28;;;;;;;;;;;34.70;44.80;;;;;;5035359;28;19909;-76
2021/07/15 10:51:54;;;;;;;;;;;32.20;47.40;;;;;;5035077;28;20016;-79
2021/07/15 10:54:20;;;;;;;;;;;32.30;48.60;;;;;;5035176;28;19949;-77
2021/07/15 10:56:47;;;;;;;;;;;34.30;46.20;;;;;;5035520;28;19963;-76
2021/07/15 10:59:29;;;;;;;;;;;35.30;42.80;;;;;;5035085;28;19917;-77
2021/07/15 11:01:55;;;;;;;;;;;34.30;44.60;;;;;;5035067;28;19913;-76
2021/07/15 11:04:40;;;;;;;;;;;32.60;46.60;;;;;;5035022;28;19995;-77
2021/07/15 11:07:34;;;;;;;;;;;33.20;46.40;;;;;;5035213;28;20391;-79
2021/07/15 11:10:12;;;;;;;;;;;33.50;45.90;;;;;;5037378;28;19960;-77
2021/07/15 11:12:38;;;;;;;;;;;33.80;46.40;;;;;;5034724;28;19969;-78
2021/07/15 11:15:13;;;;;;;;;;;32.90;45.80;;;;;;5034628;28;19909;-76
2021/07/15 11:17:42;;;;;;;;;;;33.20;47.00;;;;;;5034688;28;19915;-77
2021/07/15 11:20:27;;;;;;;;;;;32.80;48.40;;;;;;5034680;28;19909;-78
2021/07/15 11:22:53;;;;;;;;;;;34.00;45.30;;;;;;5034539;28;19923;-76
2021/07/15 11:25:28;;;;;;;;;;;35.00;44.50;;;;;;5034501;28;19910;-76
2021/07/15 11:27:54;;;;;;;;;;;35.90;43.10;;;;;;5034556;28;19910;-77
2021/07/15 11:30:39;;;;;;;;;;;35.00;43.20;;;;;;5034481;28;19913;-73
2021/07/15 11:33:27;;;;;;;;;;;35.00;42.50;;;;;;5034257;28;20324;-73
2021/07/15 11:35:52;;;;;;;;;;;33.50;46.00;;;;;;5033025;28;19916;-75
2021/07/15 11:38:22;;;;;;;;;;;34.20;44.70;;;;;;5034429;28;19909;-74
2021/07/15 11:40:48;;;;;;;;;;;35.60;42.60;;;;;;5034345;28;19909;-74
2021/07/15 11:43:15;;;;;;;;;;;36.20;41.30;;;;;;5034112;28;20281;-77
2021/07/15 11:45:59;;;;;;;;;;;36.60;41.00;;;;;;5034256;28;19954;-76
2021/07/15 11:48:59;;;;;;;;;;;36.70;40.70;;;;;;5033929;28;19909;-76
2021/07/15 11:51:37;;;;;;;;;;;37.00;40.60;;;;;;5017342;28;20003;-76
2021/07/15 11:54:15;;;;;;;;;;;36.60;39.90;;;;;;5033902;28;20404;-75
2021/07/15 11:56:43;;;;;;;;;;;35.90;41.30;;;;;;5034118;28;19913;-75
2021/07/15 11:59:09;;;;;;;;;;;36.10;41.80;;;;;;5033854;28;19916;-75
2021/07/15 12:01:36;;;;;;;;;;;36.70;40.50;;;;;;5032701;28;19909;-76
2021/07/15 12:04:06;;;;;;;;;;;36.40;40.90;;;;;;5033771;28;19909;-75
2021/07/15 12:06:33;;;;;;;;;;;37.10;40.50;;;;;;5033712;28;19917;-74
2021/07/15 12:09:05;;;;;;;;;;;36.40;41.20;;;;;;5033786;28;19999;-75
2021/07/15 12:11:32;;;;;;;;;;;36.40;41.90;;;;;;5048724;28;20433;-76
2021/07/15 12:13:59;;;;;;;;;;;37.10;39.80;;;;;;5033598;28;19909;-75
2021/07/15 12:16:25;;;;;;;;;;;37.10;39.50;;;;;;5033587;28;19959;-74
2021/07/15 12:18:51;;;;;;;;;;;36.80;39.60;;;;;;5033426;28;19909;-74
2021/07/15 12:21:18;;;;;;;;;;;38.10;39.10;;;;;;5033546;28;19916;-75
2021/07/15 12:23:46;;;;;;;;;;;37.50;39.30;;;;;;5033458;28;19999;-74
2021/07/15 12:26:15;;;;;;;;;;;37.10;39.20;;;;;;5033483;28;19935;-74
2021/07/15 12:28:45;;;;;;;;;;;36.80;39.60;;;;;;5033859;28;20348;-75
2021/07/15 12:31:12;;;;;;;;;;;37.60;39.40;;;;;;5033448;28;19909;-75
2021/07/15 12:33:43;;;;;;;;;;;37.50;38.70;;;;;;5032107;28;19964;-73
2021/07/15 12:36:10;;;;;;;;;;;36.20;39.80;;;;;;5033410;28;20324;-74
2021/07/15 12:38:36;;;;;;;;;;;35.60;41.30;;;;;;5033177;28;20007;-75
2021/07/15 12:41:09;;;;;;;;;;;36.00;41.60;;;;;;5033418;28;20377;-75
2021/07/15 12:43:58;;;;;;;;;;;36.30;40.20;;;;;;5033416;28;20348;-76
2021/07/15 12:46:31;;;;;;;;;;;37.10;39.80;;;;;;5027796;28;20358;-75
2021/07/15 12:48:58;;;;;;;;;;;36.30;39.90;;;;;;5048670;28;19917;-74
2021/07/15 12:51:28;;;;;;;;;;;36.20;39.60;;;;;;5033447;28;19909;-74
2021/07/15 12:53:54;;;;;;;;;;;36.50;40.00;;;;;;5031980;28;19909;-75
2021/07/15 12:56:24;;;;;;;;;;;37.10;39.80;;;;;;5048608;28;20289;-75
2021/07/15 12:59:00;;;;;;;;;;;37.50;39.10;;;;;;5033226;28;19921;-75
2021/07/15 13:01:25;;;;;;;;;;;36.30;39.00;;;;;;5031950;28;19960;-74
2021/07/15 13:04:05;;;;;;;;;;;36.60;38.90;;;;;;5033366;28;19913;-76
2021/07/15 13:06:31;;;;;;;;;;;36.50;39.30;;;;;;5033178;28;19919;-74
2021/07/15 13:09:05;;;;;;;;;;;36.90;38.40;;;;;;5033079;28;19909;-75
2021/07/15 13:14:17;;;;;;;;;;;36.40;38.30;;;;;;5032833;28;19915;-74
2021/07/15 13:16:47;;;;;;;;;;;35.60;39.50;;;;;;5033000;28;19913;-76
2021/07/15 13:19:13;;;;;;;;;;;36.20;38.60;;;;;;5032957;28;19936;-76
2021/07/15 13:21:39;;;;;;;;;;;36.50;38.60;;;;;;5032997;28;20341;-74
2021/07/15 13:24:07;;;;;;;;;;;36.90;39.00;;;;;;5032904;28;19909;-75
2021/07/15 13:26:43;;;;;;;;;;;37.20;38.70;;;;;;5032967;28;19909;-75
2021/07/15 13:29:09;;;;;;;;;;;36.20;39.60;;;;;;5033151;28;19970;-75
2021/07/15 13:31:36;;;;;;;;;;;35.40;40.40;;;;;;5034574;28;19992;-75
2021/07/15 13:34:05;;;;;;;;;;;34.90;41.40;;;;;;5036219;28;19916;-74
2021/07/15 13:36:31;;;;;;;;;;;34.90;41.30;;;;;;5036689;28;19916;-76
2021/07/15 13:38:56;;;;;;;;;;;35.10;40.40;;;;;;5036667;28;19909;-74
2021/07/15 13:41:24;;;;;;;;;;;35.30;40.80;;;;;;5036569;28;19964;-75
2021/07/15 13:43:50;;;;;;;;;;;36.40;39.00;;;;;;5035093;28;19913;-74
2021/07/15 13:46:18;;;;;;;;;;;37.30;38.50;;;;;;5036684;28;20331;-75
2021/07/15 13:48:44;;;;;;;;;;;37.30;37.70;;;;;;5036306;28;19956;-74
2021/07/15 13:51:12;;;;;;;;;;;37.40;38.30;;;;;;5036289;28;19939;-76
2021/07/15 13:53:40;;;;;;;;;;;37.60;38.50;;;;;;5036274;28;19913;-79
2021/07/15 13:56:07;;;;;;;;;;;37.30;38.30;;;;;;5036480;28;19909;-75
2021/07/15 13:58:33;;;;;;;;;;;37.40;38.40;;;;;;5034903;28;19909;-74
2021/07/15 14:01:01;;;;;;;;;;;38.30;37.80;;;;;;5036123;28;20007;-77
2021/07/15 14:03:26;;;;;;;;;;;37.50;36.90;;;;;;5051343;28;20259;-76
2021/07/15 14:05:53;;;;;;;;;;;38.50;37.40;;;;;;5036098;28;19916;-76
2021/07/15 14:08:20;;;;;;;;;;;38.40;37.40;;;;;;5051337;28;20394;-76
2021/07/15 14:10:46;;;;;;;;;;;38.30;37.00;;;;;;5035769;28;19928;-75
2021/07/15 14:13:12;;;;;;;;;;;37.10;36.90;;;;;;5035862;28;19956;-75
2021/07/15 14:15:39;;;;;;;;;;;36.50;39.00;;;;;;5035951;28;19924;-74
2021/07/15 14:18:07;;;;;;;;;;;36.90;39.40;;;;;;5036329;28;19916;-75
2021/07/15 14:20:42;;;;;;;;;;;37.70;38.10;;;;;;5035805;28;19909;-74
2021/07/15 14:23:09;;;;;;;;;;;37.90;37.60;;;;;;5035832;28;20277;-74
2021/07/15 14:25:36;;;;;;;;;;;37.70;37.10;;;;;;5035736;28;19909;-77